Bell, California
Current Conditions -  °F | °C
As of 11:47 AM on Friday 31 Oct 2014 (Local Time) from KCQT Reporting Station
Overcast Overcast  
Wind Chill: 69°   Ceiling: 3900
Heat Index: 69°   Visibility: 10mi
Dew Point: 55°   Wind: 0mph
Humidity: 61%   Direction: NA
Pressure: 29.93"   Gusts: NA
Location:  33.98°N, 118.18°W
Report Text: KCQT 311847Z AUTO 00000KT 10SM OVC039 21/13 A2993 RMK AO2 SLP135 T02060128
Loading
Personal Weather Stations






























Interactive Weather Map
Tropical Storm Tracking
New forecast layout! Learn more

10-Day Weather Forecast

Advertisements
Track Severe Weather on mobile